sensor_id;sensor_type;location;lat;lon;timestamp;pressure;altitude;pressure_sealevel;temperature;humidity
40650;BME280;26342;42.826;23.992;2023-06-22T00:01:58;95769.28;;;17.59;100.00
40650;BME280;26342;42.826;23.992;2023-06-22T00:04:24;95768.47;;;17.59;100.00
40650;BME280;26342;42.826;23.992;2023-06-22T00:06:50;95758.34;;;17.51;100.00
40650;BME280;26342;42.826;23.992;2023-06-22T00:09:16;95754.03;;;17.50;100.00
40650;BME280;26342;42.826;23.992;2023-06-22T00:11:41;95761.84;;;17.51;100.00
40650;BME280;26342;42.826;23.992;2023-06-22T00:14:06;95753.84;;;17.46;100.00
40650;BME280;26342;42.826;23.992;2023-06-22T00:16:32;95757.34;;;17.47;100.00
40650;BME280;26342;42.826;23.992;2023-06-22T00:18:58;95754.09;;;17.45;100.00
40650;BME280;26342;42.826;23.992;2023-06-22T00:21:29;95765.19;;;17.43;100.00
40650;BME280;26342;42.826;23.992;2023-06-22T00:23:54;95762.19;;;17.45;100.00
40650;BME280;26342;42.826;23.992;2023-06-22T00:26:21;95762.63;;;17.33;100.00
40650;BME280;26342;42.826;23.992;2023-06-22T00:28:47;95757.44;;;17.37;100.00
40650;BME280;26342;42.826;23.992;2023-06-22T00:31:12;95761.75;;;17.38;100.00
40650;BME280;26342;42.826;23.992;2023-06-22T00:33:38;95767.44;;;17.36;100.00
40650;BME280;26342;42.826;23.992;2023-06-22T00:36:04;95770.72;;;17.33;100.00
40650;BME280;26342;42.826;23.992;2023-06-22T00:38:29;95758.84;;;17.34;100.00
40650;BME280;26342;42.826;23.992;2023-06-22T00:40:55;95758.53;;;17.36;100.00
40650;BME280;26342;42.826;23.992;2023-06-22T00:43:20;95747.09;;;17.25;100.00
40650;BME280;26342;42.826;23.992;2023-06-22T00:45:46;95769.63;;;17.34;100.00
40650;BME280;26342;42.826;23.992;2023-06-22T00:48:12;95760.44;;;17.35;100.00
40650;BME280;26342;42.826;23.992;2023-06-22T00:50:39;95750.16;;;17.37;100.00
40650;BME280;26342;42.826;23.992;2023-06-22T00:53:07;95746.94;;;17.35;100.00
40650;BME280;26342;42.826;23.992;2023-06-22T00:55:42;95744.25;;;17.35;100.00
40650;BME280;26342;42.826;23.992;2023-06-22T00:58:17;95727.91;;;17.26;100.00
40650;BME280;26342;42.826;23.992;2023-06-22T01:00:47;95745.94;;;17.31;100.00
40650;BME280;26342;42.826;23.992;2023-06-22T01:03:12;95733.16;;;17.18;100.00
40650;BME280;26342;42.826;23.992;2023-06-22T01:05:39;95734.16;;;17.22;100.00
40650;BME280;26342;42.826;23.992;2023-06-22T01:11:07;95733.97;;;17.18;100.00
40650;BME280;26342;42.826;23.992;2023-06-22T01:16:25;95742.56;;;17.20;100.00
40650;BME280;26342;42.826;23.992;2023-06-22T01:18:55;95737.59;;;17.09;100.00
40650;BME280;26342;42.826;23.992;2023-06-22T01:21:23;95752.63;;;17.15;100.00
40650;BME280;26342;42.826;23.992;2023-06-22T01:24:15;95745.09;;;17.12;100.00
40650;BME280;26342;42.826;23.992;2023-06-22T01:29:52;95752.16;;;17.08;100.00
40650;BME280;26342;42.826;23.992;2023-06-22T01:32:31;95758.41;;;17.03;100.00
40650;BME280;26342;42.826;23.992;2023-06-22T01:34:58;95757.31;;;17.04;100.00
40650;BME280;26342;42.826;23.992;2023-06-22T01:37:25;95739.72;;;16.88;100.00
40650;BME280;26342;42.826;23.992;2023-06-22T01:39:51;95754.16;;;16.97;100.00
40650;BME280;26342;42.826;23.992;2023-06-22T01:42:18;95751.75;;;16.95;100.00
40650;BME280;26342;42.826;23.992;2023-06-22T01:44:43;95749.34;;;16.94;100.00
40650;BME280;26342;42.826;23.992;2023-06-22T01:47:10;95741.41;;;16.84;100.00
40650;BME280;26342;42.826;23.992;2023-06-22T01:49:39;95751.88;;;16.85;100.00
40650;BME280;26342;42.826;23.992;2023-06-22T01:52:05;95746.53;;;16.80;100.00
40650;BME280;26342;42.826;23.992;2023-06-22T01:54:31;95749.94;;;16.91;100.00
40650;BME280;26342;42.826;23.992;2023-06-22T01:56:57;95743.81;;;16.85;100.00
40650;BME280;26342;42.826;23.992;2023-06-22T02:02:06;95749.53;;;16.79;100.00
40650;BME280;26342;42.826;23.992;2023-06-22T02:07:09;95758.47;;;16.74;100.00
40650;BME280;26342;42.826;23.992;2023-06-22T02:09:39;95755.84;;;16.64;100.00
40650;BME280;26342;42.826;23.992;2023-06-22T02:12:08;95769.09;;;16.60;100.00
40650;BME280;26342;42.826;23.992;2023-06-22T02:14:36;95779.88;;;16.60;100.00
40650;BME280;26342;42.826;23.992;2023-06-22T02:17:03;95780.41;;;16.62;100.00
40650;BME280;26342;42.826;23.992;2023-06-22T02:19:36;95770.19;;;16.59;100.00
40650;BME280;26342;42.826;23.992;2023-06-22T02:22:01;95765.94;;;16.53;100.00
40650;BME280;26342;42.826;23.992;2023-06-22T02:24:27;95769.94;;;16.56;100.00
40650;BME280;26342;42.826;23.992;2023-06-22T02:26:57;95765.88;;;16.58;100.00
40650;BME280;26342;42.826;23.992;2023-06-22T02:29:22;95763.47;;;16.57;100.00
40650;BME280;26342;42.826;23.992;2023-06-22T02:31:48;95768.53;;;16.63;100.00
40650;BME280;26342;42.826;23.992;2023-06-22T02:34:13;95762.63;;;16.61;100.00
40650;BME280;26342;42.826;23.992;2023-06-22T02:36:47;95764.22;;;16.62;100.00
40650;BME280;26342;42.826;23.992;2023-06-22T02:39:25;95766.66;;;16.59;100.00
40650;BME280;26342;42.826;23.992;2023-06-22T02:41:52;95756.50;;;16.51;100.00
40650;BME280;26342;42.826;23.992;2023-06-22T02:44:18;95736.97;;;16.40;100.00
40650;BME280;26342;42.826;23.992;2023-06-22T02:46:44;95740.72;;;16.44;100.00
40650;BME280;26342;42.826;23.992;2023-06-22T02:49:10;95743.34;;;16.49;100.00
40650;BME280;26342;42.826;23.992;2023-06-22T02:51:38;95750.88;;;16.52;100.00
40650;BME280;26342;42.826;23.992;2023-06-22T02:54:05;95744.13;;;16.50;100.00
40650;BME280;26342;42.826;23.992;2023-06-22T02:56:31;95739.84;;;16.48;100.00
40650;BME280;26342;42.826;23.992;2023-06-22T02:58:56;95739.84;;;16.48;100.00
40650;BME280;26342;42.826;23.992;2023-06-22T03:01:28;95735.03;;;16.45;100.00
40650;BME280;26342;42.826;23.992;2023-06-22T03:03:56;95733.38;;;16.50;100.00
40650;BME280;26342;42.826;23.992;2023-06-22T03:06:21;95744.44;;;16.48;100.00
40650;BME280;26342;42.826;23.992;2023-06-22T03:08:58;95740.72;;;16.44;100.00
40650;BME280;26342;42.826;23.992;2023-06-22T03:11:24;95754.41;;;16.47;100.00
40650;BME280;26342;42.826;23.992;2023-06-22T03:13:50;95755.50;;;16.46;100.00
40650;BME280;26342;42.826;23.992;2023-06-22T03:16:17;95759.38;;;16.35;100.00
40650;BME280;26342;42.826;23.992;2023-06-22T03:18:43;95773.06;;;16.39;100.00
40650;BME280;26342;42.826;23.992;2023-06-22T03:21:08;95784.34;;;16.41;100.00
40650;BME280;26342;42.826;23.992;2023-06-22T03:23:34;95787.31;;;16.44;100.00
40650;BME280;26342;42.826;23.992;2023-06-22T03:25:59;95787.81;;;16.46;100.00
40650;BME280;26342;42.826;23.992;2023-06-22T03:28:24;95792.94;;;16.43;100.00
40650;BME280;26342;42.826;23.992;2023-06-22T03:30:50;95796.41;;;16.48;100.00
40650;BME280;26342;42.826;23.992;2023-06-22T03:33:15;95780.81;;;16.45;100.00
40650;BME280;26342;42.826;23.992;2023-06-22T03:35:41;95789.31;;;16.58;100.00
40650;BME280;26342;42.826;23.992;2023-06-22T03:38:07;95786.38;;;16.59;100.00
40650;BME280;26342;42.826;23.992;2023-06-22T03:40:32;95798.97;;;16.64;100.00
40650;BME280;26342;42.826;23.992;2023-06-22T03:42:58;95797.56;;;16.66;100.00
40650;BME280;26342;42.826;23.992;2023-06-22T03:45:24;95787.09;;;16.70;100.00
40650;BME280;26342;42.826;23.992;2023-06-22T03:47:49;95777.91;;;16.71;100.00
40650;BME280;26342;42.826;23.992;2023-06-22T03:50:15;95796.84;;;16.90;100.00
40650;BME280;26342;42.826;23.992;2023-06-22T03:52:40;95792.97;;;17.01;100.00
40650;BME280;26342;42.826;23.992;2023-06-22T03:55:06;95784.34;;;16.99;100.00
40650;BME280;26342;42.826;23.992;2023-06-22T03:57:32;95793.25;;;16.99;100.00
40650;BME280;26342;42.826;23.992;2023-06-22T03:59:58;95789.38;;;17.06;100.00
40650;BME280;26342;42.826;23.992;2023-06-22T04:02:24;95798.81;;;17.08;100.00
40650;BME280;26342;42.826;23.992;2023-06-22T04:04:50;95792.03;;;17.11;100.00
40650;BME280;26342;42.826;23.992;2023-06-22T04:07:15;95778.50;;;17.16;100.00
40650;BME280;26342;42.826;23.992;2023-06-22T04:09:41;95763.91;;;17.17;100.00
40650;BME280;26342;42.826;23.992;2023-06-22T04:12:07;95777.72;;;17.34;100.00
40650;BME280;26342;42.826;23.992;2023-06-22T04:14:32;95763.63;;;17.37;100.00
40650;BME280;26342;42.826;23.992;2023-06-22T04:16:58;95775.31;;;17.51;100.00
40650;BME280;26342;42.826;23.992;2023-06-22T04:19:23;95770.16;;;17.55;100.00
40650;BME280;26342;42.826;23.992;2023-06-22T04:21:49;95773.31;;;17.62;100.00
40650;BME280;26342;42.826;23.992;2023-06-22T04:24:14;95770.06;;;17.60;100.00
40650;BME280;26342;42.826;23.992;2023-06-22T04:26:40;95767.63;;;17.64;100.00
40650;BME280;26342;42.826;23.992;2023-06-22T04:29:07;95762.09;;;17.74;100.00
40650;BME280;26342;42.826;23.992;2023-06-22T04:31:34;95774.94;;;17.82;100.00
40650;BME280;26342;42.826;23.992;2023-06-22T04:34:03;95766.16;;;17.90;100.00
40650;BME280;26342;42.826;23.992;2023-06-22T04:36:37;95774.41;;;17.99;100.00
40650;BME280;26342;42.826;23.992;2023-06-22T04:39:06;95785.56;;;18.11;100.00
40650;BME280;26342;42.826;23.992;2023-06-22T04:41:32;95765.56;;;18.12;100.00
40650;BME280;26342;42.826;23.992;2023-06-22T04:44:19;95776.50;;;18.21;100.00
40650;BME280;26342;42.826;23.992;2023-06-22T04:46:56;95780.44;;;18.28;100.00
40650;BME280;26342;42.826;23.992;2023-06-22T04:49:34;95769.44;;;18.25;100.00
40650;BME280;26342;42.826;23.992;2023-06-22T04:52:04;95780.56;;;18.37;100.00
40650;BME280;26342;42.826;23.992;2023-06-22T04:54:30;95771.44;;;18.33;100.00
40650;BME280;26342;42.826;23.992;2023-06-22T04:57:08;95767.84;;;18.37;100.00
40650;BME280;26342;42.826;23.992;2023-06-22T04:59:37;95778.78;;;18.46;100.00
40650;BME280;26342;42.826;23.992;2023-06-22T05:02:04;95774.88;;;18.52;100.00
40650;BME280;26342;42.826;23.992;2023-06-22T05:04:31;95780.72;;;18.59;100.00
40650;BME280;26342;42.826;23.992;2023-06-22T05:06:57;95779.56;;;18.65;100.00
40650;BME280;26342;42.826;23.992;2023-06-22T05:09:23;95784.84;;;18.71;100.00
40650;BME280;26342;42.826;23.992;2023-06-22T05:11:50;95768.84;;;18.74;100.00
40650;BME280;26342;42.826;23.992;2023-06-22T05:14:15;95770.88;;;18.82;100.00
40650;BME280;26342;42.826;23.992;2023-06-22T05:16:42;95786.00;;;18.97;100.00
40650;BME280;26342;42.826;23.992;2023-06-22T05:19:08;95781.41;;;18.98;100.00
40650;BME280;26342;42.826;23.992;2023-06-22T05:21:33;95785.19;;;19.10;100.00
40650;BME280;26342;42.826;23.992;2023-06-22T05:23:59;95775.97;;;19.25;100.00
40650;BME280;26342;42.826;23.992;2023-06-22T05:26:32;95785.69;;;19.40;100.00
40650;BME280;26342;42.826;23.992;2023-06-22T05:28:58;95788.00;;;19.46;100.00
40650;BME280;26342;42.826;23.992;2023-06-22T05:31:24;95793.81;;;19.67;100.00
40650;BME280;26342;42.826;23.992;2023-06-22T05:33:52;95793.56;;;19.77;100.00
40650;BME280;26342;42.826;23.992;2023-06-22T05:36:18;95785.69;;;19.90;100.00
40650;BME280;26342;42.826;23.992;2023-06-22T05:38:45;95794.91;;;20.02;100.00
40650;BME280;26342;42.826;23.992;2023-06-22T05:41:11;95777.75;;;20.07;100.00
40650;BME280;26342;42.826;23.992;2023-06-22T05:43:36;95790.00;;;20.27;100.00
40650;BME280;26342;42.826;23.992;2023-06-22T05:46:03;95795.47;;;20.35;100.00
40650;BME280;26342;42.826;23.992;2023-06-22T05:48:28;95798.66;;;20.38;100.00
40650;BME280;26342;42.826;23.992;2023-06-22T05:50:54;95790.97;;;20.53;100.00
40650;BME280;26342;42.826;23.992;2023-06-22T05:53:20;95789.16;;;20.62;100.00
40650;BME280;26342;42.826;23.992;2023-06-22T05:55:45;95771.31;;;20.70;100.00
40650;BME280;26342;42.826;23.992;2023-06-22T05:58:11;95785.50;;;20.98;100.00
40650;BME280;26342;42.826;23.992;2023-06-22T06:00:38;95774.34;;;21.08;100.00
40650;BME280;26342;42.826;23.992;2023-06-22T06:03:04;95779.56;;;21.27;100.00
40650;BME280;26342;42.826;23.992;2023-06-22T06:05:31;95779.13;;;21.42;100.00
40650;BME280;26342;42.826;23.992;2023-06-22T06:07:56;95782.53;;;21.57;100.00
40650;BME280;26342;42.826;23.992;2023-06-22T06:10:22;95771.69;;;21.65;100.00
40650;BME280;26342;42.826;23.992;2023-06-22T06:12:47;95769.78;;;21.83;100.00
40650;BME280;26342;42.826;23.992;2023-06-22T06:15:13;95775.06;;;21.97;100.00
40650;BME280;26342;42.826;23.992;2023-06-22T06:17:48;95782.59;;;22.09;100.00
40650;BME280;26342;42.826;23.992;2023-06-22T06:20:14;95792.03;;;22.28;100.00
40650;BME280;26342;42.826;23.992;2023-06-22T06:22:39;95777.94;;;22.44;100.00
40650;BME280;26342;42.826;23.992;2023-06-22T06:25:05;95789.09;;;22.68;100.00
40650;BME280;26342;42.826;23.992;2023-06-22T06:27:30;95783.31;;;22.87;100.00
40650;BME280;26342;42.826;23.992;2023-06-22T06:29:56;95779.59;;;23.00;100.00
40650;BME280;26342;42.826;23.992;2023-06-22T06:32:22;95779.50;;;23.18;100.00
40650;BME280;26342;42.826;23.992;2023-06-22T06:34:47;95779.13;;;23.28;100.00
40650;BME280;26342;42.826;23.992;2023-06-22T06:37:12;95786.91;;;23.47;100.00
40650;BME280;26342;42.826;23.992;2023-06-22T06:39:38;95782.34;;;23.59;100.00
40650;BME280;26342;42.826;23.992;2023-06-22T06:42:05;95783.59;;;23.71;100.00
40650;BME280;26342;42.826;23.992;2023-06-22T06:44:30;95775.47;;;23.83;100.00
40650;BME280;26342;42.826;23.992;2023-06-22T06:46:56;95769.69;;;23.84;100.00
40650;BME280;26342;42.826;23.992;2023-06-22T06:49:21;95776.69;;;23.94;100.00
40650;BME280;26342;42.826;23.992;2023-06-22T06:51:46;95779.94;;;24.08;100.00
40650;BME280;26342;42.826;23.992;2023-06-22T06:54:12;95777.47;;;24.15;100.00
40650;BME280;26342;42.826;23.992;2023-06-22T06:56:37;95769.03;;;24.29;100.00
40650;BME280;26342;42.826;23.992;2023-06-22T06:59:03;95772.22;;;24.52;100.00
40650;BME280;26342;42.826;23.992;2023-06-22T07:01:28;95781.47;;;24.72;100.00
40650;BME280;26342;42.826;23.992;2023-06-22T07:03:58;95758.09;;;24.83;100.00
40650;BME280;26342;42.826;23.992;2023-06-22T07:06:23;95758.31;;;24.90;100.00
40650;BME280;26342;42.826;23.992;2023-06-22T07:08:55;95758.25;;;25.11;100.00
40650;BME280;26342;42.826;23.992;2023-06-22T07:11:20;95766.69;;;25.30;100.00
40650;BME280;26342;42.826;23.992;2023-06-22T07:13:45;95765.31;;;25.49;100.00
40650;BME280;26342;42.826;23.992;2023-06-22T07:16:11;95765.53;;;25.56;100.00
40650;BME280;26342;42.826;23.992;2023-06-22T07:18:36;95764.53;;;25.73;100.00
40650;BME280;26342;42.826;23.992;2023-06-22T07:21:01;95760.06;;;25.93;100.00
40650;BME280;26342;42.826;23.992;2023-06-22T07:23:28;95773.00;;;26.08;100.00
40650;BME280;26342;42.826;23.992;2023-06-22T07:25:54;95764.38;;;26.22;100.00
40650;BME280;26342;42.826;23.992;2023-06-22T07:28:19;95768.31;;;26.36;100.00
40650;BME280;26342;42.826;23.992;2023-06-22T07:30:46;95773.44;;;26.50;100.00
40650;BME280;26342;42.826;23.992;2023-06-22T07:33:11;95776.94;;;26.63;100.00
40650;BME280;26342;42.826;23.992;2023-06-22T07:35:36;95775.84;;;26.67;97.52
40650;BME280;26342;42.826;23.992;2023-06-22T07:38:02;95769.53;;;26.79;95.71
40650;BME280;26342;42.826;23.992;2023-06-22T07:40:28;95776.88;;;26.91;93.72
40650;BME280;26342;42.826;23.992;2023-06-22T07:42:54;95775.84;;;26.95;91.77
40650;BME280;26342;42.826;23.992;2023-06-22T07:45:20;95766.34;;;26.93;94.34
40650;BME280;26342;42.826;23.992;2023-06-22T07:47:45;95770.88;;;27.01;88.26
40650;BME280;26342;42.826;23.992;2023-06-22T07:50:11;95763.34;;;27.10;93.57
40650;BME280;26342;42.826;23.992;2023-06-22T07:52:36;95767.13;;;27.21;97.03
40650;BME280;26342;42.826;23.992;2023-06-22T07:55:02;95771.06;;;27.40;88.22
40650;BME280;26342;42.826;23.992;2023-06-22T07:57:28;95769.91;;;27.41;87.92
40650;BME280;26342;42.826;23.992;2023-06-22T08:00:04;95772.06;;;27.32;88.83
40650;BME280;26342;42.826;23.992;2023-06-22T08:02:39;95773.09;;;27.59;94.01
40650;BME280;26342;42.826;23.992;2023-06-22T08:05:06;95757.16;;;27.80;88.60
40650;BME280;26342;42.826;23.992;2023-06-22T08:07:34;95765.63;;;27.91;90.34
40650;BME280;26342;42.826;23.992;2023-06-22T08:10:00;95764.13;;;27.93;86.36
40650;BME280;26342;42.826;23.992;2023-06-22T08:12:26;95763.22;;;28.05;87.75
40650;BME280;26342;42.826;23.992;2023-06-22T08:14:51;95770.13;;;28.18;87.53
40650;BME280;26342;42.826;23.992;2023-06-22T08:17:16;95777.72;;;28.25;82.07
40650;BME280;26342;42.826;23.992;2023-06-22T08:19:42;95775.44;;;28.46;88.25
40650;BME280;26342;42.826;23.992;2023-06-22T08:22:07;95755.91;;;28.51;81.90
40650;BME280;26342;42.826;23.992;2023-06-22T08:24:33;95764.06;;;28.67;85.76
40650;BME280;26342;42.826;23.992;2023-06-22T08:26:58;95768.63;;;28.59;75.96
40650;BME280;26342;42.826;23.992;2023-06-22T08:29:23;95775.97;;;28.52;81.95
40650;BME280;26342;42.826;23.992;2023-06-22T08:31:49;95770.09;;;28.53;78.50
40650;BME280;26342;42.826;23.992;2023-06-22T08:34:14;95774.34;;;28.70;78.89
40650;BME280;26342;42.826;23.992;2023-06-22T08:36:40;95764.28;;;28.78;78.15
40650;BME280;26342;42.826;23.992;2023-06-22T08:39:10;95762.38;;;28.82;80.42
40650;BME280;26342;42.826;23.992;2023-06-22T08:41:35;95755.19;;;28.93;82.12
40650;BME280;26342;42.826;23.992;2023-06-22T08:44:01;95760.09;;;29.07;79.34
40650;BME280;26342;42.826;23.992;2023-06-22T08:46:26;95767.31;;;29.15;81.23
40650;BME280;26342;42.826;23.992;2023-06-22T08:48:56;95762.50;;;29.31;75.91
40650;BME280;26342;42.826;23.992;2023-06-22T08:51:25;95753.63;;;29.41;76.05
40650;BME280;26342;42.826;23.992;2023-06-22T08:53:50;95756.88;;;29.47;69.88
40650;BME280;26342;42.826;23.992;2023-06-22T08:56:16;95756.75;;;29.40;70.42
40650;BME280;26342;42.826;23.992;2023-06-22T08:58:41;95754.97;;;29.51;73.29
40650;BME280;26342;42.826;23.992;2023-06-22T09:01:07;95760.09;;;29.53;71.40
40650;BME280;26342;42.826;23.992;2023-06-22T09:03:32;95757.44;;;29.56;70.61
40650;BME280;26342;42.826;23.992;2023-06-22T09:06:00;95761.41;;;29.62;69.38
40650;BME280;26342;42.826;23.992;2023-06-22T09:08:25;95762.44;;;29.51;71.51
40650;BME280;26342;42.826;23.992;2023-06-22T09:10:50;95765.97;;;29.51;66.71
40650;BME280;26342;42.826;23.992;2023-06-22T09:13:16;95755.34;;;29.50;66.19
40650;BME280;26342;42.826;23.992;2023-06-22T09:15:41;95749.84;;;29.50;68.98
40650;BME280;26342;42.826;23.992;2023-06-22T09:18:10;95758.44;;;29.48;63.65
40650;BME280;26342;42.826;23.992;2023-06-22T09:20:36;95757.81;;;29.55;66.07
40650;BME280;26342;42.826;23.992;2023-06-22T09:23:01;95752.34;;;29.58;66.19
40650;BME280;26342;42.826;23.992;2023-06-22T09:25:27;95756.13;;;29.77;65.44
40650;BME280;26342;42.826;23.992;2023-06-22T09:27:52;95751.09;;;29.79;63.62
40650;BME280;26342;42.826;23.992;2023-06-22T09:30:18;95761.06;;;29.90;67.03
40650;BME280;26342;42.826;23.992;2023-06-22T09:32:44;95756.81;;;29.96;60.73
40650;BME280;26342;42.826;23.992;2023-06-22T09:35:09;95761.03;;;29.87;66.74
40650;BME280;26342;42.826;23.992;2023-06-22T09:37:36;95759.06;;;29.87;62.94
40650;BME280;26342;42.826;23.992;2023-06-22T09:40:01;95754.28;;;29.84;65.48
40650;BME280;26342;42.826;23.992;2023-06-22T09:42:31;95744.03;;;29.81;67.23
40650;BME280;26342;42.826;23.992;2023-06-22T09:44:56;95752.44;;;29.92;66.19
40650;BME280;26342;42.826;23.992;2023-06-22T09:47:21;95740.97;;;29.86;65.60
40650;BME280;26342;42.826;23.992;2023-06-22T09:49:47;95744.59;;;29.94;65.60
40650;BME280;26342;42.826;23.992;2023-06-22T09:52:12;95746.84;;;30.11;66.71
40650;BME280;26342;42.826;23.992;2023-06-22T09:54:38;95749.72;;;30.22;61.50
40650;BME280;26342;42.826;23.992;2023-06-22T09:57:03;95739.41;;;30.15;62.33
40650;BME280;26342;42.826;23.992;2023-06-22T09:59:29;95750.81;;;30.17;59.15
40650;BME280;26342;42.826;23.992;2023-06-22T10:01:54;95749.16;;;30.09;65.27
40650;BME280;26342;42.826;23.992;2023-06-22T10:04:19;95741.69;;;30.10;63.00
40650;BME280;26342;42.826;23.992;2023-06-22T10:06:45;95740.19;;;30.16;65.02
40650;BME280;26342;42.826;23.992;2023-06-22T10:09:12;95751.44;;;30.34;59.48
40650;BME280;26342;42.826;23.992;2023-06-22T10:11:37;95745.41;;;30.24;60.98
40650;BME280;26342;42.826;23.992;2023-06-22T10:14:02;95740.94;;;30.13;62.54
40650;BME280;26342;42.826;23.992;2023-06-22T10:16:32;95746.66;;;30.00;57.83
40650;BME280;26342;42.826;23.992;2023-06-22T10:18:58;95738.81;;;30.02;62.63
40650;BME280;26342;42.826;23.992;2023-06-22T10:21:23;95741.25;;;30.08;58.58
40650;BME280;26342;42.826;23.992;2023-06-22T10:23:49;95735.72;;;30.08;62.46
40650;BME280;26342;42.826;23.992;2023-06-22T10:26:14;95734.66;;;30.12;61.24
40650;BME280;26342;42.826;23.992;2023-06-22T10:28:40;95742.13;;;30.12;61.76
40650;BME280;26342;42.826;23.992;2023-06-22T10:31:05;95737.00;;;30.10;58.92
40650;BME280;26342;42.826;23.992;2023-06-22T10:33:31;95734.28;;;30.14;62.82
40650;BME280;26342;42.826;23.992;2023-06-22T10:35:56;95734.75;;;30.19;61.51
40650;BME280;26342;42.826;23.992;2023-06-22T10:38:21;95740.28;;;30.23;63.68
40650;BME280;26342;42.826;23.992;2023-06-22T10:40:47;95727.66;;;30.18;62.68
40650;BME280;26342;42.826;23.992;2023-06-22T10:43:12;95731.22;;;30.22;64.96
40650;BME280;26342;42.826;23.992;2023-06-22T10:45:38;95742.84;;;30.39;62.46
40650;BME280;26342;42.826;23.992;2023-06-22T10:48:03;95742.97;;;30.49;62.31
40650;BME280;26342;42.826;23.992;2023-06-22T10:50:29;95736.72;;;30.52;61.27
40650;BME280;26342;42.826;23.992;2023-06-22T10:52:54;95736.38;;;30.57;62.72
40650;BME280;26342;42.826;23.992;2023-06-22T10:55:20;95737.81;;;30.48;62.21
40650;BME280;26342;42.826;23.992;2023-06-22T10:57:45;95735.03;;;30.44;59.81
40650;BME280;26342;42.826;23.992;2023-06-22T11:00:13;95736.50;;;30.35;62.96
40650;BME280;26342;42.826;23.992;2023-06-22T11:02:39;95734.31;;;30.17;63.26
40650;BME280;26342;42.826;23.992;2023-06-22T11:05:04;95748.00;;;30.10;63.40
40650;BME280;26342;42.826;23.992;2023-06-22T11:07:30;95734.63;;;29.82;63.16
40650;BME280;26342;42.826;23.992;2023-06-22T11:09:56;95731.50;;;29.57;66.73
40650;BME280;26342;42.826;23.992;2023-06-22T11:12:22;95735.81;;;29.55;63.28
40650;BME280;26342;42.826;23.992;2023-06-22T11:14:47;95732.03;;;29.43;64.16
40650;BME280;26342;42.826;23.992;2023-06-22T11:17:12;95739.28;;;29.52;62.08
40650;BME280;26342;42.826;23.992;2023-06-22T11:19:38;95742.63;;;29.41;61.97
40650;BME280;26342;42.826;23.992;2023-06-22T11:22:03;95740.13;;;29.33;62.11
40650;BME280;26342;42.826;23.992;2023-06-22T11:24:29;95741.31;;;29.32;63.22
40650;BME280;26342;42.826;23.992;2023-06-22T11:26:54;95744.59;;;29.18;63.91
40650;BME280;26342;42.826;23.992;2023-06-22T11:29:20;95742.03;;;29.06;65.95
40650;BME280;26342;42.826;23.992;2023-06-22T11:31:45;95742.16;;;28.90;65.68
40650;BME280;26342;42.826;23.992;2023-06-22T11:34:11;95735.63;;;28.98;65.52
40650;BME280;26342;42.826;23.992;2023-06-22T11:36:36;95738.13;;;29.07;66.34
40650;BME280;26342;42.826;23.992;2023-06-22T11:39:02;95735.75;;;29.05;64.11
40650;BME280;26342;42.826;23.992;2023-06-22T11:41:27;95746.81;;;29.09;65.70
40650;BME280;26342;42.826;23.992;2023-06-22T11:43:53;95739.31;;;28.86;65.62
40650;BME280;26342;42.826;23.992;2023-06-22T11:46:18;95744.31;;;28.81;65.80
40650;BME280;26342;42.826;23.992;2023-06-22T11:48:43;95748.19;;;28.76;66.32
40650;BME280;26342;42.826;23.992;2023-06-22T11:51:09;95746.66;;;28.59;65.57
40650;BME280;26342;42.826;23.992;2023-06-22T11:53:35;95748.06;;;28.50;66.72
40650;BME280;26342;42.826;23.992;2023-06-22T11:56:01;95745.91;;;28.40;68.72
40650;BME280;26342;42.826;23.992;2023-06-22T11:58:26;95740.47;;;28.43;71.15
40650;BME280;26342;42.826;23.992;2023-06-22T12:00:52;95755.13;;;28.51;71.99
40650;BME280;26342;42.826;23.992;2023-06-22T12:03:18;95741.41;;;28.51;71.36
40650;BME280;26342;42.826;23.992;2023-06-22T12:05:43;95738.59;;;28.47;69.16
40650;BME280;26342;42.826;23.992;2023-06-22T12:08:09;95745.63;;;28.45;71.32
40650;BME280;26342;42.826;23.992;2023-06-22T12:10:34;95747.63;;;28.48;72.18
40650;BME280;26342;42.826;23.992;2023-06-22T12:13:00;95740.47;;;28.43;73.05
40650;BME280;26342;42.826;23.992;2023-06-22T12:15:26;95745.97;;;28.43;73.79
40650;BME280;26342;42.826;23.992;2023-06-22T12:17:51;95740.91;;;28.45;73.99
40650;BME280;26342;42.826;23.992;2023-06-22T12:20:17;95743.53;;;28.38;76.87
40650;BME280;26342;42.826;23.992;2023-06-22T12:22:42;95736.00;;;28.35;76.84
40650;BME280;26342;42.826;23.992;2023-06-22T12:25:08;95736.50;;;28.41;77.75
40650;BME280;26342;42.826;23.992;2023-06-22T12:27:35;95737.06;;;28.50;77.85
40650;BME280;26342;42.826;23.992;2023-06-22T12:30:00;95730.94;;;28.56;76.54
40650;BME280;26342;42.826;23.992;2023-06-22T12:32:26;95726.22;;;28.76;74.23
40650;BME280;26342;42.826;23.992;2023-06-22T12:34:51;95735.94;;;28.74;74.12
40650;BME280;26342;42.826;23.992;2023-06-22T12:37:17;95722.16;;;28.70;74.01
40650;BME280;26342;42.826;23.992;2023-06-22T12:39:42;95721.28;;;28.66;73.56
40650;BME280;26342;42.826;23.992;2023-06-22T12:42:08;95723.19;;;28.62;75.17
40650;BME280;26342;42.826;23.992;2023-06-22T12:44:35;95717.06;;;28.49;75.20
40650;BME280;26342;42.826;23.992;2023-06-22T12:47:00;95713.69;;;28.36;76.04
40650;BME280;26342;42.826;23.992;2023-06-22T12:49:26;95711.13;;;28.28;78.59
40650;BME280;26342;42.826;23.992;2023-06-22T12:51:51;95705.16;;;28.22;78.56
40650;BME280;26342;42.826;23.992;2023-06-22T12:54:16;95701.09;;;28.16;78.33
40650;BME280;26342;42.826;23.992;2023-06-22T12:56:42;95707.81;;;28.19;78.13